Terminal Aerodrome Forecast
Issued by NWS

Home | Current Version | Previous Version | Text Only | Print | Product List | Glossary On
Versions: 1 2 3 4 5 6 7 8 9 10 11 12 13 14 15 16 17 18 19 20 21
105
FTAK31 PAJN 241140
TAFAKT
TAF
PAKT 241140Z 2412/2512 31010KT P6SM SCT035 SCT050 WS020/32030KT
      TEMPO 2412/2416 OVC030
     FM241800 31012G20KT P6SM SCT035
     FM250600 31010KT P6SM SCT025 BKN035
      AMD LTD TO CLD VIS AND WIND 2412/2415=

USA.gov is the U.S. government's official web portal to all federal, state and local government web resources and services.